Midland, NC

8:40 PM EST on January 22, 2017 (GMT -0500)
Bost Creek | | Change Station

Elev 528 ft 35.29 °N, 80.49 °W | Updated 37 seconds ago

Rain
Rain
56.3 °F
Feels Like 56.3 °F
N
2.0
Wind Variable Wind from East

Today
High -- | Low -- °F
--% Chance of Precip.
Yesterday
High -- | Low -- °F
Precip. -- in
Pressure 29.45 in
Visibility 3.0 miles
Clouds Overcast 700 ft
Dew Point 54 °F
Humidity 93%
Rainfall 0.36 in
Snow Depth Not available.
7:27 AM 5:40 PM
Waning Crescent, 22% visible
METAR KJQF 230050Z 06003KT 3SM RA BR OVC007 14/13 A2945
Pressure 29.45 in
Visibility 3.0 miles
Clouds Overcast 700 ft
Dew Point 54 °F
Humidity 93%
Rainfall 0.36 in
Snow Depth Not available.
7:27 AM 5:40 PM
Waning Crescent, 22% visible
METAR KJQF 230050Z 06003KT 3SM RA BR OVC007 14/13 A2945

Get Your Daily Forecast Email!

Thanks for signing up!

Be on the lookout for a verification email in your inbox.

You'll start receiving the daily forecast at 8 AM.

×

10-Day Weather Forecast

Almanac

Astronomy

Jan. 22, 2017 Rise Set
Actual Time
Civil Twilight
Nautical Twilight
Astronomical Twilight
Moon
Length of Visible Light
Length of Day
Tomorrow will be .
, % of the Moon is Illuminated

Today's Extremes

State Highs State Lows

Community

WunderPhotos

Upload Photos

1,962,540 photos uploaded!

WunderBlog® & News

Nearby

Air Quality

  Air Quality AQ Index Pollutant
Not available.

Snow Depth

Station Depth Elevation

Earthquake Activity

City Distance Mag. Time & Date
Minimum magnitude displayed is 2.5.

Coastal Water Temperatures

Place Temperature

Stations

Nearby Weather Stations

Station Location Temp. Windchill Dew Point Humidity Wind Precip. Elev Updated Type
                   

Watches & Warnings

There are currently no watches in effect.